sensor_id;sensor_type;location;lat;lon;timestamp;P1;durP1;ratioP1;P2;durP2;ratioP2
67049;SDS011;53955;52.442;13.284;2022-10-28T00:02:23;7.80;;;4.57;;
67049;SDS011;53955;52.442;13.284;2022-10-28T00:04:49;4.63;;;3.75;;
67049;SDS011;53955;52.442;13.284;2022-10-28T00:07:16;7.10;;;3.88;;
67049;SDS011;53955;52.442;13.284;2022-10-28T00:09:44;9.50;;;4.32;;
67049;SDS011;53955;52.442;13.284;2022-10-28T00:12:10;6.78;;;4.18;;
67049;SDS011;53955;52.442;13.284;2022-10-28T00:14:37;6.63;;;4.53;;
67049;SDS011;53955;52.442;13.284;2022-10-28T00:17:03;7.60;;;4.10;;
67049;SDS011;53955;52.442;13.284;2022-10-28T00:19:30;7.40;;;4.50;;
67049;SDS011;53955;52.442;13.284;2022-10-28T00:21:56;6.00;;;3.67;;
67049;SDS011;53955;52.442;13.284;2022-10-28T00:24:23;8.30;;;4.07;;
67049;SDS011;53955;52.442;13.284;2022-10-28T00:26:51;5.88;;;4.20;;
67049;SDS011;53955;52.442;13.284;2022-10-28T00:29:18;8.27;;;4.65;;
67049;SDS011;53955;52.442;13.284;2022-10-28T00:31:45;6.75;;;4.30;;
67049;SDS011;53955;52.442;13.284;2022-10-28T00:34:13;8.55;;;4.13;;
67049;SDS011;53955;52.442;13.284;2022-10-28T00:36:42;7.20;;;3.92;;
67049;SDS011;53955;52.442;13.284;2022-10-28T00:39:10;7.88;;;4.68;;
67049;SDS011;53955;52.442;13.284;2022-10-28T00:41:38;10.35;;;4.55;;
67049;SDS011;53955;52.442;13.284;2022-10-28T00:47:27;7.10;;;4.50;;
67049;SDS011;53955;52.442;13.284;2022-10-28T00:50:00;6.95;;;4.00;;
67049;SDS011;53955;52.442;13.284;2022-10-28T00:52:32;10.25;;;4.50;;
67049;SDS011;53955;52.442;13.284;2022-10-28T00:54:59;7.38;;;4.20;;
67049;SDS011;53955;52.442;13.284;2022-10-28T00:57:29;5.50;;;3.90;;
67049;SDS011;53955;52.442;13.284;2022-10-28T00:59:58;6.07;;;3.97;;
67049;SDS011;53955;52.442;13.284;2022-10-28T01:02:27;5.55;;;3.40;;
67049;SDS011;53955;52.442;13.284;2022-10-28T01:04:54;7.90;;;3.85;;
67049;SDS011;53955;52.442;13.284;2022-10-28T01:07:21;5.72;;;4.07;;
67049;SDS011;53955;52.442;13.284;2022-10-28T01:09:48;5.93;;;3.90;;
67049;SDS011;53955;52.442;13.284;2022-10-28T01:12:16;5.10;;;3.50;;
67049;SDS011;53955;52.442;13.284;2022-10-28T01:14:58;5.85;;;4.13;;
67049;SDS011;53955;52.442;13.284;2022-10-28T01:17:34;7.35;;;4.20;;
67049;SDS011;53955;52.442;13.284;2022-10-28T01:23:19;5.53;;;3.50;;
67049;SDS011;53955;52.442;13.284;2022-10-28T01:25:57;6.80;;;4.15;;
67049;SDS011;53955;52.442;13.284;2022-10-28T01:28:50;8.00;;;3.67;;
67049;SDS011;53955;52.442;13.284;2022-10-28T01:31:34;7.47;;;3.97;;
67049;SDS011;53955;52.442;13.284;2022-10-28T01:34:08;6.35;;;4.15;;
67049;SDS011;53955;52.442;13.284;2022-10-28T01:36:40;6.00;;;3.95;;
67049;SDS011;53955;52.442;13.284;2022-10-28T01:39:16;6.63;;;4.07;;
67049;SDS011;53955;52.442;13.284;2022-10-28T01:41:50;5.65;;;3.90;;
67049;SDS011;53955;52.442;13.284;2022-10-28T01:44:20;9.85;;;4.13;;
67049;SDS011;53955;52.442;13.284;2022-10-28T01:46:54;6.00;;;3.53;;
67049;SDS011;53955;52.442;13.284;2022-10-28T01:49:27;5.45;;;3.50;;
67049;SDS011;53955;52.442;13.284;2022-10-28T01:51:59;5.65;;;3.60;;
67049;SDS011;53955;52.442;13.284;2022-10-28T01:54:29;7.85;;;4.32;;
67049;SDS011;53955;52.442;13.284;2022-10-28T01:56:58;7.20;;;4.20;;
67049;SDS011;53955;52.442;13.284;2022-10-28T01:59:27;5.85;;;3.72;;
67049;SDS011;53955;52.442;13.284;2022-10-28T02:01:56;6.07;;;4.05;;
67049;SDS011;53955;52.442;13.284;2022-10-28T02:04:22;6.18;;;3.88;;
67049;SDS011;53955;52.442;13.284;2022-10-28T02:06:50;8.75;;;3.95;;
67049;SDS011;53955;52.442;13.284;2022-10-28T02:09:23;11.23;;;4.15;;
67049;SDS011;53955;52.442;13.284;2022-10-28T02:12:02;6.93;;;3.80;;
67049;SDS011;53955;52.442;13.284;2022-10-28T02:14:47;7.43;;;3.67;;
67049;SDS011;53955;52.442;13.284;2022-10-28T02:17:29;7.63;;;4.28;;
67049;SDS011;53955;52.442;13.284;2022-10-28T02:20:03;7.45;;;4.25;;
67049;SDS011;53955;52.442;13.284;2022-10-28T02:22:36;6.88;;;3.78;;
67049;SDS011;53955;52.442;13.284;2022-10-28T02:25:11;6.80;;;4.47;;
67049;SDS011;53955;52.442;13.284;2022-10-28T02:27:43;5.50;;;3.67;;
67049;SDS011;53955;52.442;13.284;2022-10-28T02:30:17;8.98;;;4.15;;
67049;SDS011;53955;52.442;13.284;2022-10-28T02:32:49;7.75;;;3.80;;
67049;SDS011;53955;52.442;13.284;2022-10-28T02:35:19;8.43;;;4.45;;
67049;SDS011;53955;52.442;13.284;2022-10-28T02:37:55;8.20;;;3.90;;
67049;SDS011;53955;52.442;13.284;2022-10-28T02:40:25;6.05;;;4.43;;
67049;SDS011;53955;52.442;13.284;2022-10-28T02:42:54;5.65;;;3.78;;
67049;SDS011;53955;52.442;13.284;2022-10-28T02:45:27;8.30;;;4.20;;
67049;SDS011;53955;52.442;13.284;2022-10-28T02:47:58;7.93;;;3.97;;
67049;SDS011;53955;52.442;13.284;2022-10-28T02:50:30;5.30;;;3.70;;
67049;SDS011;53955;52.442;13.284;2022-10-28T02:52:59;8.85;;;4.55;;
67049;SDS011;53955;52.442;13.284;2022-10-28T02:55:31;6.35;;;3.97;;
67049;SDS011;53955;52.442;13.284;2022-10-28T02:58:00;8.68;;;4.65;;
67049;SDS011;53955;52.442;13.284;2022-10-28T03:00:27;6.20;;;4.05;;
67049;SDS011;53955;52.442;13.284;2022-10-28T03:02:53;7.53;;;4.70;;
67049;SDS011;53955;52.442;13.284;2022-10-28T03:05:21;7.57;;;4.07;;
67049;SDS011;53955;52.442;13.284;2022-10-28T03:07:48;9.48;;;4.43;;
67049;SDS011;53955;52.442;13.284;2022-10-28T03:10:15;9.70;;;4.50;;
67049;SDS011;53955;52.442;13.284;2022-10-28T03:12:42;9.35;;;4.45;;
67049;SDS011;53955;52.442;13.284;2022-10-28T03:15:08;7.65;;;3.95;;
67049;SDS011;53955;52.442;13.284;2022-10-28T03:17:35;9.57;;;4.40;;
67049;SDS011;53955;52.442;13.284;2022-10-28T03:20:02;8.05;;;4.80;;
67049;SDS011;53955;52.442;13.284;2022-10-28T03:22:31;8.00;;;4.72;;
67049;SDS011;53955;52.442;13.284;2022-10-28T03:24:57;9.80;;;4.93;;
67049;SDS011;53955;52.442;13.284;2022-10-28T03:27:24;9.70;;;5.15;;
67049;SDS011;53955;52.442;13.284;2022-10-28T03:29:50;5.63;;;3.75;;
67049;SDS011;53955;52.442;13.284;2022-10-28T03:32:17;12.23;;;4.45;;
67049;SDS011;53955;52.442;13.284;2022-10-28T03:34:43;6.57;;;4.30;;
67049;SDS011;53955;52.442;13.284;2022-10-28T03:39:41;9.10;;;4.90;;
67049;SDS011;53955;52.442;13.284;2022-10-28T03:42:07;9.40;;;5.18;;
67049;SDS011;53955;52.442;13.284;2022-10-28T03:44:34;6.10;;;4.05;;
67049;SDS011;53955;52.442;13.284;2022-10-28T03:47:00;9.48;;;4.80;;
67049;SDS011;53955;52.442;13.284;2022-10-28T03:49:27;9.73;;;4.47;;
67049;SDS011;53955;52.442;13.284;2022-10-28T03:51:53;6.65;;;4.82;;
67049;SDS011;53955;52.442;13.284;2022-10-28T03:54:20;7.40;;;4.75;;
67049;SDS011;53955;52.442;13.284;2022-10-28T03:56:48;8.90;;;5.18;;
67049;SDS011;53955;52.442;13.284;2022-10-28T03:59:14;7.80;;;5.45;;
67049;SDS011;53955;52.442;13.284;2022-10-28T04:01:41;7.10;;;4.72;;
67049;SDS011;53955;52.442;13.284;2022-10-28T04:04:07;8.30;;;4.70;;
67049;SDS011;53955;52.442;13.284;2022-10-28T04:06:34;6.72;;;4.70;;
67049;SDS011;53955;52.442;13.284;2022-10-28T04:09:01;7.45;;;4.65;;
67049;SDS011;53955;52.442;13.284;2022-10-28T04:11:27;6.88;;;4.80;;
67049;SDS011;53955;52.442;13.284;2022-10-28T04:13:55;11.80;;;5.00;;
67049;SDS011;53955;52.442;13.284;2022-10-28T04:16:21;10.05;;;5.07;;
67049;SDS011;53955;52.442;13.284;2022-10-28T04:18:48;8.00;;;4.57;;
67049;SDS011;53955;52.442;13.284;2022-10-28T04:21:15;9.80;;;5.55;;
67049;SDS011;53955;52.442;13.284;2022-10-28T04:23:41;8.05;;;5.30;;
67049;SDS011;53955;52.442;13.284;2022-10-28T04:26:08;9.73;;;4.85;;
67049;SDS011;53955;52.442;13.284;2022-10-28T04:28:34;9.05;;;5.35;;
67049;SDS011;53955;52.442;13.284;2022-10-28T04:31:02;9.95;;;5.30;;
67049;SDS011;53955;52.442;13.284;2022-10-28T04:33:29;9.10;;;5.35;;
67049;SDS011;53955;52.442;13.284;2022-10-28T04:35:56;6.45;;;5.15;;
67049;SDS011;53955;52.442;13.284;2022-10-28T04:38:22;9.98;;;5.10;;
67049;SDS011;53955;52.442;13.284;2022-10-28T04:40:49;8.57;;;5.07;;
67049;SDS011;53955;52.442;13.284;2022-10-28T04:43:16;8.75;;;5.40;;
67049;SDS011;53955;52.442;13.284;2022-10-28T04:45:43;7.25;;;5.15;;
67049;SDS011;53955;52.442;13.284;2022-10-28T04:48:11;9.30;;;5.43;;
67049;SDS011;53955;52.442;13.284;2022-10-28T04:50:38;8.05;;;5.25;;
67049;SDS011;53955;52.442;13.284;2022-10-28T04:53:05;10.27;;;5.10;;
67049;SDS011;53955;52.442;13.284;2022-10-28T04:55:31;9.57;;;5.63;;
67049;SDS011;53955;52.442;13.284;2022-10-28T04:57:59;9.40;;;5.10;;
67049;SDS011;53955;52.442;13.284;2022-10-28T05:00:26;7.28;;;5.03;;
67049;SDS011;53955;52.442;13.284;2022-10-28T05:02:53;9.37;;;4.73;;
67049;SDS011;53955;52.442;13.284;2022-10-28T05:05:22;10.45;;;5.40;;
67049;SDS011;53955;52.442;13.284;2022-10-28T05:07:48;6.32;;;4.72;;
67049;SDS011;53955;52.442;13.284;2022-10-28T05:10:15;10.38;;;5.03;;
67049;SDS011;53955;52.442;13.284;2022-10-28T05:12:42;8.73;;;5.10;;
67049;SDS011;53955;52.442;13.284;2022-10-28T05:15:09;8.38;;;5.07;;
67049;SDS011;53955;52.442;13.284;2022-10-28T05:17:37;8.13;;;4.97;;
67049;SDS011;53955;52.442;13.284;2022-10-28T05:20:05;10.32;;;5.40;;
67049;SDS011;53955;52.442;13.284;2022-10-28T05:22:34;9.55;;;5.38;;
67049;SDS011;53955;52.442;13.284;2022-10-28T05:25:00;8.63;;;5.45;;
67049;SDS011;53955;52.442;13.284;2022-10-28T05:27:27;8.07;;;4.80;;
67049;SDS011;53955;52.442;13.284;2022-10-28T05:29:53;7.80;;;4.68;;
67049;SDS011;53955;52.442;13.284;2022-10-28T05:32:20;9.25;;;4.95;;
67049;SDS011;53955;52.442;13.284;2022-10-28T05:34:47;10.75;;;5.10;;
67049;SDS011;53955;52.442;13.284;2022-10-28T05:37:13;6.95;;;4.43;;
67049;SDS011;53955;52.442;13.284;2022-10-28T05:39:41;8.65;;;4.90;;
67049;SDS011;53955;52.442;13.284;2022-10-28T05:42:07;9.45;;;4.25;;
67049;SDS011;53955;52.442;13.284;2022-10-28T05:44:34;7.32;;;5.00;;
67049;SDS011;53955;52.442;13.284;2022-10-28T05:47:01;8.18;;;5.40;;
67049;SDS011;53955;52.442;13.284;2022-10-28T05:49:27;7.45;;;4.60;;
67049;SDS011;53955;52.442;13.284;2022-10-28T05:51:54;8.23;;;5.05;;
67049;SDS011;53955;52.442;13.284;2022-10-28T05:54:20;8.10;;;4.75;;
67049;SDS011;53955;52.442;13.284;2022-10-28T05:56:48;7.97;;;4.63;;
67049;SDS011;53955;52.442;13.284;2022-10-28T05:59:15;8.18;;;5.18;;
67049;SDS011;53955;52.442;13.284;2022-10-28T06:01:41;11.95;;;5.60;;
67049;SDS011;53955;52.442;13.284;2022-10-28T06:04:08;8.15;;;5.40;;
67049;SDS011;53955;52.442;13.284;2022-10-28T06:06:34;9.40;;;5.35;;
67049;SDS011;53955;52.442;13.284;2022-10-28T06:09:01;9.90;;;5.78;;
67049;SDS011;53955;52.442;13.284;2022-10-28T06:11:28;7.47;;;5.20;;
67049;SDS011;53955;52.442;13.284;2022-10-28T06:13:56;11.32;;;5.63;;
67049;SDS011;53955;52.442;13.284;2022-10-28T06:16:23;10.75;;;6.65;;
67049;SDS011;53955;52.442;13.284;2022-10-28T06:18:49;8.95;;;5.97;;
67049;SDS011;53955;52.442;13.284;2022-10-28T06:21:16;10.27;;;6.25;;
67049;SDS011;53955;52.442;13.284;2022-10-28T06:23:43;9.90;;;5.93;;
67049;SDS011;53955;52.442;13.284;2022-10-28T06:26:12;8.57;;;5.60;;
67049;SDS011;53955;52.442;13.284;2022-10-28T06:28:38;10.27;;;5.57;;
67049;SDS011;53955;52.442;13.284;2022-10-28T06:31:07;9.40;;;5.68;;
67049;SDS011;53955;52.442;13.284;2022-10-28T06:33:34;9.05;;;5.65;;
67049;SDS011;53955;52.442;13.284;2022-10-28T06:36:01;8.85;;;5.30;;
67049;SDS011;53955;52.442;13.284;2022-10-28T06:38:28;10.50;;;5.60;;
67049;SDS011;53955;52.442;13.284;2022-10-28T06:40:55;11.88;;;6.13;;
67049;SDS011;53955;52.442;13.284;2022-10-28T06:43:22;12.32;;;5.22;;
67049;SDS011;53955;52.442;13.284;2022-10-28T06:45:49;6.90;;;4.70;;
67049;SDS011;53955;52.442;13.284;2022-10-28T06:48:20;12.30;;;5.50;;
67049;SDS011;53955;52.442;13.284;2022-10-28T06:50:47;9.32;;;4.88;;
67049;SDS011;53955;52.442;13.284;2022-10-28T06:53:14;10.15;;;4.72;;
67049;SDS011;53955;52.442;13.284;2022-10-28T06:55:41;7.85;;;4.47;;
67049;SDS011;53955;52.442;13.284;2022-10-28T06:58:12;7.05;;;5.03;;
67049;SDS011;53955;52.442;13.284;2022-10-28T07:00:39;17.45;;;5.45;;
67049;SDS011;53955;52.442;13.284;2022-10-28T07:03:05;12.25;;;4.63;;
67049;SDS011;53955;52.442;13.284;2022-10-28T07:05:35;8.80;;;4.72;;
67049;SDS011;53955;52.442;13.284;2022-10-28T07:08:01;6.55;;;4.65;;
67049;SDS011;53955;52.442;13.284;2022-10-28T07:10:29;7.80;;;4.57;;
67049;SDS011;53955;52.442;13.284;2022-10-28T07:12:55;7.13;;;4.60;;
67049;SDS011;53955;52.442;13.284;2022-10-28T07:15:22;8.43;;;4.57;;
67049;SDS011;53955;52.442;13.284;2022-10-28T07:17:52;9.73;;;4.93;;
67049;SDS011;53955;52.442;13.284;2022-10-28T07:20:19;9.55;;;4.55;;
67049;SDS011;53955;52.442;13.284;2022-10-28T07:22:47;8.13;;;4.43;;
67049;SDS011;53955;52.442;13.284;2022-10-28T07:25:19;7.22;;;4.43;;
67049;SDS011;53955;52.442;13.284;2022-10-28T07:27:46;9.93;;;4.30;;
67049;SDS011;53955;52.442;13.284;2022-10-28T07:30:13;7.03;;;4.07;;
67049;SDS011;53955;52.442;13.284;2022-10-28T07:32:39;6.13;;;3.63;;
67049;SDS011;53955;52.442;13.284;2022-10-28T07:35:06;6.93;;;3.88;;
67049;SDS011;53955;52.442;13.284;2022-10-28T07:37:33;6.68;;;3.92;;
67049;SDS011;53955;52.442;13.284;2022-10-28T07:40:01;8.27;;;3.85;;
67049;SDS011;53955;52.442;13.284;2022-10-28T07:42:28;7.28;;;3.85;;
67049;SDS011;53955;52.442;13.284;2022-10-28T07:44:54;11.93;;;4.13;;
67049;SDS011;53955;52.442;13.284;2022-10-28T07:47:21;11.90;;;3.90;;
67049;SDS011;53955;52.442;13.284;2022-10-28T07:49:47;8.48;;;3.75;;
67049;SDS011;53955;52.442;13.284;2022-10-28T07:52:14;5.35;;;3.30;;
67049;SDS011;53955;52.442;13.284;2022-10-28T07:54:40;6.70;;;4.15;;
67049;SDS011;53955;52.442;13.284;2022-10-28T07:57:08;7.15;;;3.63;;
67049;SDS011;53955;52.442;13.284;2022-10-28T07:59:35;6.15;;;3.50;;
67049;SDS011;53955;52.442;13.284;2022-10-28T08:02:01;6.93;;;3.42;;
67049;SDS011;53955;52.442;13.284;2022-10-28T08:04:28;10.55;;;3.85;;
67049;SDS011;53955;52.442;13.284;2022-10-28T08:06:55;8.98;;;3.80;;
67049;SDS011;53955;52.442;13.284;2022-10-28T08:09:21;11.30;;;3.38;;
67049;SDS011;53955;52.442;13.284;2022-10-28T08:11:48;8.88;;;3.60;;
67049;SDS011;53955;52.442;13.284;2022-10-28T08:14:16;5.47;;;3.65;;
67049;SDS011;53955;52.442;13.284;2022-10-28T08:16:44;6.30;;;3.58;;
67049;SDS011;53955;52.442;13.284;2022-10-28T08:19:10;5.43;;;3.28;;
67049;SDS011;53955;52.442;13.284;2022-10-28T08:21:37;7.38;;;3.35;;
67049;SDS011;53955;52.442;13.284;2022-10-28T08:24:04;8.75;;;3.42;;
67049;SDS011;53955;52.442;13.284;2022-10-28T08:26:31;7.65;;;3.63;;
67049;SDS011;53955;52.442;13.284;2022-10-28T08:28:58;9.50;;;4.07;;
67049;SDS011;53955;52.442;13.284;2022-10-28T08:31:26;6.18;;;3.67;;
67049;SDS011;53955;52.442;13.284;2022-10-28T08:33:53;6.25;;;3.30;;
67049;SDS011;53955;52.442;13.284;2022-10-28T08:36:19;8.52;;;3.67;;
67049;SDS011;53955;52.442;13.284;2022-10-28T08:38:46;7.70;;;3.72;;
67049;SDS011;53955;52.442;13.284;2022-10-28T08:41:15;7.68;;;3.05;;
67049;SDS011;53955;52.442;13.284;2022-10-28T08:43:53;8.30;;;3.75;;
67049;SDS011;53955;52.442;13.284;2022-10-28T08:46:32;5.15;;;2.95;;
67049;SDS011;53955;52.442;13.284;2022-10-28T08:49:13;8.75;;;3.50;;
67049;SDS011;53955;52.442;13.284;2022-10-28T08:51:45;7.43;;;3.08;;
67049;SDS011;53955;52.442;13.284;2022-10-28T08:54:16;9.48;;;3.17;;
67049;SDS011;53955;52.442;13.284;2022-10-28T08:56:46;5.32;;;3.05;;
67049;SDS011;53955;52.442;13.284;2022-10-28T08:59:16;6.97;;;3.22;;
67049;SDS011;53955;52.442;13.284;2022-10-28T09:01:48;6.53;;;3.55;;
67049;SDS011;53955;52.442;13.284;2022-10-28T09:04:20;4.68;;;2.83;;
67049;SDS011;53955;52.442;13.284;2022-10-28T09:06:51;5.85;;;3.60;;
67049;SDS011;53955;52.442;13.284;2022-10-28T09:09:19;6.22;;;3.28;;
67049;SDS011;53955;52.442;13.284;2022-10-28T09:12:02;5.78;;;3.28;;
67049;SDS011;53955;52.442;13.284;2022-10-28T09:14:43;6.32;;;3.10;;
67049;SDS011;53955;52.442;13.284;2022-10-28T09:17:20;7.00;;;3.10;;
67049;SDS011;53955;52.442;13.284;2022-10-28T09:19:58;6.45;;;3.30;;
67049;SDS011;53955;52.442;13.284;2022-10-28T09:22:36;6.05;;;3.47;;
67049;SDS011;53955;52.442;13.284;2022-10-28T09:25:11;9.27;;;3.17;;
67049;SDS011;53955;52.442;13.284;2022-10-28T09:27:48;5.93;;;3.00;;
67049;SDS011;53955;52.442;13.284;2022-10-28T09:30:26;6.55;;;2.83;;
67049;SDS011;53955;52.442;13.284;2022-10-28T09:33:00;7.78;;;3.42;;
67049;SDS011;53955;52.442;13.284;2022-10-28T09:35:40;10.77;;;3.25;;
67049;SDS011;53955;52.442;13.284;2022-10-28T09:38:12;8.73;;;2.78;;
67049;SDS011;53955;52.442;13.284;2022-10-28T09:40:47;5.70;;;3.15;;
67049;SDS011;53955;52.442;13.284;2022-10-28T09:43:19;4.47;;;2.70;;
67049;SDS011;53955;52.442;13.284;2022-10-28T09:45:51;5.55;;;2.53;;
67049;SDS011;53955;52.442;13.284;2022-10-28T09:48:22;6.22;;;2.70;;
67049;SDS011;53955;52.442;13.284;2022-10-28T09:50:52;8.73;;;3.10;;
67049;SDS011;53955;52.442;13.284;2022-10-28T09:53:25;6.82;;;2.58;;
67049;SDS011;53955;52.442;13.284;2022-10-28T09:55:59;7.63;;;2.67;;
67049;SDS011;53955;52.442;13.284;2022-10-28T09:58:26;6.55;;;2.95;;
67049;SDS011;53955;52.442;13.284;2022-10-28T10:00:52;6.63;;;2.80;;
67049;SDS011;53955;52.442;13.284;2022-10-28T10:03:19;7.88;;;2.58;;
67049;SDS011;53955;52.442;13.284;2022-10-28T10:05:48;9.45;;;3.72;;
67049;SDS011;53955;52.442;13.284;2022-10-28T10:08:17;6.20;;;2.55;;
67049;SDS011;53955;52.442;13.284;2022-10-28T10:10:47;4.93;;;2.53;;
67049;SDS011;53955;52.442;13.284;2022-10-28T10:13:15;5.32;;;2.58;;
67049;SDS011;53955;52.442;13.284;2022-10-28T10:15:47;8.13;;;3.08;;
67049;SDS011;53955;52.442;13.284;2022-10-28T10:18:19;4.82;;;2.45;;
67049;SDS011;53955;52.442;13.284;2022-10-28T10:20:50;5.25;;;2.60;;
67049;SDS011;53955;52.442;13.284;2022-10-28T10:23:25;9.00;;;2.95;;
67049;SDS011;53955;52.442;13.284;2022-10-28T10:25:54;5.00;;;2.65;;
67049;SDS011;53955;52.442;13.284;2022-10-28T10:28:23;7.95;;;2.78;;
67049;SDS011;53955;52.442;13.284;2022-10-28T10:30:52;5.40;;;2.42;;
67049;SDS011;53955;52.442;13.284;2022-10-28T10:33:22;7.28;;;2.78;;
67049;SDS011;53955;52.442;13.284;2022-10-28T10:35:54;9.35;;;3.13;;
67049;SDS011;53955;52.442;13.284;2022-10-28T10:38:23;9.70;;;3.55;;
67049;SDS011;53955;52.442;13.284;2022-10-28T10:40:51;6.35;;;3.30;;
67049;SDS011;53955;52.442;13.284;2022-10-28T10:43:20;6.05;;;2.45;;
67049;SDS011;53955;52.442;13.284;2022-10-28T10:45:52;9.45;;;2.25;;
67049;SDS011;53955;52.442;13.284;2022-10-28T10:48:25;5.57;;;2.85;;
67049;SDS011;53955;52.442;13.284;2022-10-28T10:50:54;4.18;;;2.10;;
67049;SDS011;53955;52.442;13.284;2022-10-28T10:53:22;8.52;;;3.08;;
67049;SDS011;53955;52.442;13.284;2022-10-28T10:55:51;5.50;;;2.70;;
67049;SDS011;53955;52.442;13.284;2022-10-28T10:58:21;17.77;;;3.35;;
67049;SDS011;53955;52.442;13.284;2022-10-28T11:00:50;5.38;;;2.53;;
67049;SDS011;53955;52.442;13.284;2022-10-28T11:03:20;8.88;;;2.67;;
67049;SDS011;53955;52.442;13.284;2022-10-28T11:05:51;5.85;;;2.83;;
67049;SDS011;53955;52.442;13.284;2022-10-28T11:08:30;6.50;;;2.80;;
67049;SDS011;53955;52.442;13.284;2022-10-28T11:11:02;7.97;;;2.90;;
67049;SDS011;53955;52.442;13.284;2022-10-28T11:13:31;4.90;;;2.30;;
67049;SDS011;53955;52.442;13.284;2022-10-28T11:16:00;7.32;;;2.72;;
67049;SDS011;53955;52.442;13.284;2022-10-28T11:18:27;9.52;;;2.80;;
67049;SDS011;53955;52.442;13.284;2022-10-28T11:21:05;9.77;;;3.28;;
67049;SDS011;53955;52.442;13.284;2022-10-28T11:23:42;7.03;;;2.67;;
67049;SDS011;53955;52.442;13.284;2022-10-28T11:26:17;7.78;;;2.65;;
67049;SDS011;53955;52.442;13.284;2022-10-28T11:31:39;6.85;;;2.47;;
67049;SDS011;53955;52.442;13.284;2022-10-28T11:34:25;9.50;;;2.58;;
67049;SDS011;53955;52.442;13.284;2022-10-28T11:37:08;5.78;;;2.50;;
67049;SDS011;53955;52.442;13.284;2022-10-28T11:39:40;8.88;;;2.45;;
67049;SDS011;53955;52.442;13.284;2022-10-28T11:42:18;6.88;;;2.20;;
67049;SDS011;53955;52.442;13.284;2022-10-28T11:44:57;6.43;;;2.55;;
67049;SDS011;53955;52.442;13.284;2022-10-28T11:47:36;4.68;;;2.30;;
67049;SDS011;53955;52.442;13.284;2022-10-28T11:50:21;5.50;;;2.60;;
67049;SDS011;53955;52.442;13.284;2022-10-28T11:53:05;5.25;;;2.25;;
67049;SDS011;53955;52.442;13.284;2022-10-28T11:55:55;3.70;;;2.13;;
67049;SDS011;53955;52.442;13.284;2022-10-28T11:58:31;6.32;;;2.28;;
67049;SDS011;53955;52.442;13.284;2022-10-28T12:01:07;7.82;;;2.70;;
67049;SDS011;53955;52.442;13.284;2022-10-28T12:06:50;5.57;;;2.25;;
67049;SDS011;53955;52.442;13.284;2022-10-28T12:09:32;6.45;;;1.92;;
67049;SDS011;53955;52.442;13.284;2022-10-28T12:12:14;5.13;;;2.60;;
67049;SDS011;53955;52.442;13.284;2022-10-28T12:14:47;8.35;;;2.72;;
67049;SDS011;53955;52.442;13.284;2022-10-28T12:17:21;5.55;;;2.83;;
67049;SDS011;53955;52.442;13.284;2022-10-28T12:19:53;8.20;;;2.50;;
67049;SDS011;53955;52.442;13.284;2022-10-28T12:22:24;5.97;;;2.58;;
67049;SDS011;53955;52.442;13.284;2022-10-28T12:24:56;4.43;;;2.42;;
67049;SDS011;53955;52.442;13.284;2022-10-28T12:27:26;6.20;;;2.30;;
67049;SDS011;53955;52.442;13.284;2022-10-28T12:29:57;6.07;;;2.30;;
67049;SDS011;53955;52.442;13.284;2022-10-28T12:32:28;5.32;;;2.45;;
67049;SDS011;53955;52.442;13.284;2022-10-28T12:34:59;5.88;;;2.17;;
67049;SDS011;53955;52.442;13.284;2022-10-28T12:37:30;8.85;;;2.70;;
67049;SDS011;53955;52.442;13.284;2022-10-28T12:40:03;7.75;;;2.17;;
67049;SDS011;53955;52.442;13.284;2022-10-28T12:42:36;10.82;;;2.42;;
67049;SDS011;53955;52.442;13.284;2022-10-28T12:45:09;6.90;;;2.70;;
67049;SDS011;53955;52.442;13.284;2022-10-28T12:47:40;8.57;;;2.67;;
67049;SDS011;53955;52.442;13.284;2022-10-28T12:50:12;5.78;;;2.58;;
67049;SDS011;53955;52.442;13.284;2022-10-28T12:52:46;5.00;;;2.03;;
67049;SDS011;53955;52.442;13.284;2022-10-28T12:55:27;6.82;;;2.40;;
67049;SDS011;53955;52.442;13.284;2022-10-28T12:58:00;5.07;;;2.42;;
67049;SDS011;53955;52.442;13.284;2022-10-28T13:00:30;6.63;;;2.67;;
67049;SDS011;53955;52.442;13.284;2022-10-28T13:03:01;7.10;;;2.47;;
67049;SDS011;53955;52.442;13.284;2022-10-28T13:05:32;5.47;;;2.53;;
67049;SDS011;53955;52.442;13.284;2022-10-28T13:08:11;9.95;;;3.00;;
67049;SDS011;53955;52.442;13.284;2022-10-28T13:11:02;7.63;;;2.72;;
67049;SDS011;53955;52.442;13.284;2022-10-28T13:13:53;11.10;;;2.50;;
67049;SDS011;53955;52.442;13.284;2022-10-28T13:16:26;8.10;;;2.78;;
67049;SDS011;53955;52.442;13.284;2022-10-28T13:19:17;8.65;;;2.67;;
67049;SDS011;53955;52.442;13.284;2022-10-28T13:25:04;5.13;;;2.58;;
67049;SDS011;53955;52.442;13.284;2022-10-28T13:27:44;6.90;;;2.30;;
67049;SDS011;53955;52.442;13.284;2022-10-28T13:30:15;9.05;;;2.33;;
67049;SDS011;53955;52.442;13.284;2022-10-28T13:32:45;9.10;;;2.50;;
67049;SDS011;53955;52.442;13.284;2022-10-28T13:35:21;5.28;;;2.50;;
67049;SDS011;53955;52.442;13.284;2022-10-28T13:37:50;8.05;;;2.50;;
67049;SDS011;53955;52.442;13.284;2022-10-28T13:40:19;8.98;;;2.47;;
67049;SDS011;53955;52.442;13.284;2022-10-28T13:42:50;5.55;;;2.53;;
67049;SDS011;53955;52.442;13.284;2022-10-28T13:51:25;7.32;;;2.35;;
67049;SDS011;53955;52.442;13.284;2022-10-28T13:53:59;6.10;;;2.60;;
67049;SDS011;53955;52.442;13.284;2022-10-28T13:59:20;6.40;;;2.53;;
67049;SDS011;53955;52.442;13.284;2022-10-28T14:02:17;8.05;;;2.08;;
67049;SDS011;53955;52.442;13.284;2022-10-28T14:04:55;6.22;;;2.45;;
67049;SDS011;53955;52.442;13.284;2022-10-28T14:07:25;5.57;;;2.50;;
67049;SDS011;53955;52.442;13.284;2022-10-28T14:09:55;6.13;;;2.17;;
67049;SDS011;53955;52.442;13.284;2022-10-28T14:12:32;6.47;;;2.22;;
67049;SDS011;53955;52.442;13.284;2022-10-28T14:15:15;7.53;;;2.72;;
67049;SDS011;53955;52.442;13.284;2022-10-28T14:17:45;8.50;;;2.40;;
67049;SDS011;53955;52.442;13.284;2022-10-28T14:20:19;6.25;;;2.28;;
67049;SDS011;53955;52.442;13.284;2022-10-28T14:22:49;6.22;;;2.10;;
67049;SDS011;53955;52.442;13.284;2022-10-28T14:31:36;8.02;;;2.80;;
67049;SDS011;53955;52.442;13.284;2022-10-28T14:34:29;10.60;;;2.72;;
67049;SDS011;53955;52.442;13.284;2022-10-28T14:37:17;7.32;;;2.40;;
67049;SDS011;53955;52.442;13.284;2022-10-28T14:40:00;9.55;;;2.78;;
67049;SDS011;53955;52.442;13.284;2022-10-28T14:42:50;6.68;;;2.60;;
67049;SDS011;53955;52.442;13.284;2022-10-28T14:45:28;5.78;;;2.47;;
67049;SDS011;53955;52.442;13.284;2022-10-28T14:48:15;6.82;;;2.80;;
67049;SDS011;53955;52.442;13.284;2022-10-28T14:50:51;5.07;;;2.17;;
67049;SDS011;53955;52.442;13.284;2022-10-28T14:53:23;5.75;;;2.60;;
67049;SDS011;53955;52.442;13.284;2022-10-28T14:55:55;7.63;;;2.50;;
67049;SDS011;53955;52.442;13.284;2022-10-28T14:58:27;6.18;;;2.97;;
67049;SDS011;53955;52.442;13.284;2022-10-28T15:00:58;8.98;;;2.53;;
67049;SDS011;53955;52.442;13.284;2022-10-28T15:03:35;7.07;;;2.47;;
67049;SDS011;53955;52.442;13.284;2022-10-28T15:06:17;7.05;;;2.55;;
67049;SDS011;53955;52.442;13.284;2022-10-28T15:08:49;6.65;;;2.58;;
67049;SDS011;53955;52.442;13.284;2022-10-28T15:11:16;8.25;;;2.80;;
67049;SDS011;53955;52.442;13.284;2022-10-28T15:13:43;10.05;;;3.63;;
67049;SDS011;53955;52.442;13.284;2022-10-28T15:16:17;6.15;;;3.10;;
67049;SDS011;53955;52.442;13.284;2022-10-28T15:18:47;8.48;;;3.00;;
67049;SDS011;53955;52.442;13.284;2022-10-28T15:21:15;12.10;;;4.10;;
67049;SDS011;53955;52.442;13.284;2022-10-28T15:23:43;6.95;;;2.85;;
67049;SDS011;53955;52.442;13.284;2022-10-28T15:26:10;6.43;;;2.70;;
67049;SDS011;53955;52.442;13.284;2022-10-28T15:28:38;6.47;;;2.70;;